Time;durP1;ratioP1;P1;durP2;ratioP2;P2;SDS_P1;SDS_P2;PMS_P1;PMS_P2;Temp;Humidity;BMP_temperature;BMP_pressure;BME280_temperature;BME280_humidity;BME280_pressure;Samples;Min_cycle;Max_cycle;Signal;HPM_P1;HPM_P2
2022/05/15 00:01:54;;;;;;;38.42;6.97;;;9.90;99.90;;;;;;4940315;29;20140;-83
2022/05/15 00:04:20;;;;;;;34.00;7.35;;;9.90;99.90;;;;;;4940445;29;20482;-82
2022/05/15 00:06:45;;;;;;;32.47;6.38;;;9.80;99.90;;;;;;4956093;29;20051;-82
2022/05/15 00:09:11;;;;;;;33.00;6.75;;;9.80;99.90;;;;;;4956288;29;20047;-82
2022/05/15 00:11:37;;;;;;;28.98;5.72;;;9.80;99.90;;;;;;4956309;29;20058;-81
2022/05/15 00:14:02;;;;;;;30.73;6.15;;;9.80;99.90;;;;;;4939994;29;20055;-82
2022/05/15 00:16:31;;;;;;;32.10;6.50;;;9.80;99.90;;;;;;4940131;29;20083;-81
2022/05/15 00:18:58;;;;;;;28.98;6.50;;;9.80;99.90;;;;;;4940481;29;20055;-81
2022/05/15 00:21:24;;;;;;;36.35;7.05;;;9.80;99.90;;;;;;4956117;29;20390;-82
2022/05/15 00:23:50;;;;;;;34.75;6.35;;;9.70;99.90;;;;;;4940055;29;20039;-82
2022/05/15 00:26:16;;;;;;;36.67;6.50;;;9.70;99.90;;;;;;4940053;29;20366;-81
2022/05/15 00:28:41;;;;;;;31.90;6.45;;;9.70;99.90;;;;;;4956877;29;20384;-82
2022/05/15 00:31:08;;;;;;;33.35;6.72;;;9.70;99.90;;;;;;4955491;29;20535;-83
2022/05/15 00:33:34;;;;;;;34.95;7.07;;;9.70;99.90;;;;;;4956629;29;20113;-85
2022/05/15 00:36:00;;;;;;;30.63;6.53;;;9.70;99.90;;;;;;4923533;29;20138;-82
2022/05/15 00:38:25;;;;;;;32.10;6.43;;;9.70;99.90;;;;;;4955823;29;20134;-82
2022/05/15 00:40:52;;;;;;;36.03;6.13;;;9.70;99.90;;;;;;4955792;29;20083;-82
2022/05/15 00:43:55;;;;;;;30.98;6.25;;;9.70;99.90;;;;;;4956614;29;20051;-81
2022/05/15 00:46:26;;;;;;;30.58;6.05;;;9.60;99.90;;;;;;4881978;29;20096;-82
2022/05/15 00:48:53;;;;;;;32.67;6.60;;;9.60;99.90;;;;;;4897376;29;20403;-82
2022/05/15 00:51:44;;;;;;;33.38;6.57;;;9.60;99.90;;;;;;4881642;29;20569;-82
2022/05/15 00:54:20;;;;;;;28.60;6.28;;;9.50;99.90;;;;;;4882030;29;20151;-84
2022/05/15 00:56:50;;;;;;;34.67;6.55;;;9.50;99.90;;;;;;4897271;29;20044;-85
2022/05/15 00:59:20;;;;;;;30.73;6.50;;;9.50;99.90;;;;;;4881867;29;20079;-82
2022/05/15 01:01:46;;;;;;;28.10;6.63;;;9.40;99.90;;;;;;4881700;29;20087;-81
2022/05/15 01:04:12;;;;;;;30.52;6.63;;;9.40;99.90;;;;;;4881476;29;20498;-83
2022/05/15 01:06:43;;;;;;;35.80;6.70;;;9.40;99.90;;;;;;4881331;29;20053;-81
2022/05/15 01:09:10;;;;;;;33.50;7.05;;;9.40;99.90;;;;;;4881190;29;20517;-81
2022/05/15 01:11:37;;;;;;;26.88;5.85;;;9.40;99.90;;;;;;4881625;29;20402;-81
2022/05/15 01:14:05;;;;;;;29.73;6.53;;;9.30;99.90;;;;;;4881611;29;20553;-81
2022/05/15 01:16:32;;;;;;;36.08;7.10;;;9.40;99.90;;;;;;4881378;29;20045;-82
2022/05/15 01:19:00;;;;;;;29.52;5.93;;;9.60;99.90;;;;;;4897037;29;20139;-81
2022/05/15 01:21:30;;;;;;;30.75;6.47;;;9.30;99.90;;;;;;4954453;29;20087;-82
2022/05/15 01:23:56;;;;;;;30.10;6.68;;;9.40;99.90;;;;;;4938893;29;20476;-82
2022/05/15 01:26:24;;;;;;;30.95;6.35;;;9.40;99.90;;;;;;4954971;29;20074;-81
2022/05/15 01:28:50;;;;;;;35.17;6.90;;;9.40;99.90;;;;;;4954766;29;20055;-81
2022/05/15 01:31:16;;;;;;;30.90;6.22;;;9.40;99.90;;;;;;4954836;29;20039;-82
2022/05/15 01:33:49;;;;;;;26.48;6.20;;;9.40;99.90;;;;;;4954877;29;20408;-83
2022/05/15 01:36:16;;;;;;;26.40;6.07;;;9.40;99.90;;;;;;4954615;29;20043;-82
2022/05/15 01:38:41;;;;;;;30.38;7.32;;;9.40;99.90;;;;;;4954916;29;20047;-81
2022/05/15 01:41:07;;;;;;;37.92;7.00;;;9.40;99.90;;;;;;4954814;29;20039;-81
2022/05/15 01:43:33;;;;;;;31.17;7.05;;;9.30;99.90;;;;;;4938638;29;20047;-81
2022/05/15 01:45:59;;;;;;;34.05;7.20;;;9.30;99.90;;;;;;4938453;29;20067;-81
2022/05/15 01:48:26;;;;;;;24.27;5.90;;;9.30;99.90;;;;;;4938299;29;20047;-81
2022/05/15 01:50:52;;;;;;;30.50;6.78;;;9.20;99.90;;;;;;4938318;29;20046;-83
2022/05/15 01:53:18;;;;;;;31.40;6.25;;;9.20;99.90;;;;;;4938080;29;20051;-82
2022/05/15 01:55:43;;;;;;;35.28;7.68;;;9.10;99.90;;;;;;4938618;29;20081;-82
2022/05/15 01:58:10;;;;;;;26.20;6.68;;;9.00;99.90;;;;;;4922200;29;20059;-82
2022/05/15 02:00:37;;;;;;;33.25;7.57;;;9.00;99.90;;;;;;4938506;29;20039;-82
2022/05/15 02:03:02;;;;;;;26.83;7.10;;;8.90;99.90;;;;;;4922402;29;20051;-81
2022/05/15 02:05:28;;;;;;;29.20;6.95;;;8.80;99.90;;;;;;4937498;29;20058;-82
2022/05/15 02:07:54;;;;;;;33.28;7.00;;;8.80;99.90;;;;;;4953892;29;20469;-81
2022/05/15 02:10:20;;;;;;;34.28;6.90;;;8.70;99.90;;;;;;4954376;29;20559;-82
2022/05/15 02:12:46;;;;;;;34.17;7.45;;;8.60;99.90;;;;;;4954710;28;20035;-82
2022/05/15 02:15:12;;;;;;;33.70;7.40;;;8.60;99.90;;;;;;4954373;29;20377;-81
2022/05/15 02:17:38;;;;;;;32.50;7.20;;;8.60;99.90;;;;;;4955035;29;20051;-82
2022/05/15 02:20:04;;;;;;;27.38;6.75;;;8.50;99.90;;;;;;4954889;29;20066;-82
2022/05/15 02:22:30;;;;;;;32.35;6.82;;;8.40;99.90;;;;;;4954496;29;20078;-82
2022/05/15 02:24:56;;;;;;;25.60;6.68;;;8.40;99.90;;;;;;4937794;29;20154;-81
2022/05/15 02:27:21;;;;;;;28.65;7.10;;;8.30;99.90;;;;;;4938026;29;20102;-82
2022/05/15 02:29:47;;;;;;;31.00;7.22;;;8.30;99.90;;;;;;4954831;29;20043;-81
2022/05/15 02:32:13;;;;;;;34.15;7.88;;;8.30;99.90;;;;;;4937928;29;20385;-83
2022/05/15 02:34:39;;;;;;;33.53;7.40;;;8.30;99.90;;;;;;4937772;29;20094;-82
2022/05/15 02:37:04;;;;;;;34.63;7.57;;;8.30;99.90;;;;;;4954458;29;20113;-83
2022/05/15 02:39:30;;;;;;;29.65;7.00;;;8.30;99.90;;;;;;4953628;29;20429;-81
2022/05/15 02:41:56;;;;;;;36.47;7.40;;;8.20;99.90;;;;;;4954683;29;20420;-81
2022/05/15 02:44:21;;;;;;;34.63;7.78;;;8.20;99.90;;;;;;4953682;29;20376;-81
2022/05/15 02:46:47;;;;;;;36.33;7.30;;;8.20;99.90;;;;;;4953681;29;20085;-81
2022/05/15 02:51:57;;;;;;;31.88;7.53;;;8.10;99.90;;;;;;4937425;29;20090;-81
2022/05/15 02:54:23;;;;;;;28.88;7.35;;;8.10;99.90;;;;;;4954757;29;20109;-81
2022/05/15 02:56:49;;;;;;;29.73;7.65;;;8.10;99.90;;;;;;4953595;29;20130;-81
2022/05/15 02:59:14;;;;;;;33.53;7.55;;;8.10;99.90;;;;;;4954439;29;20122;-81
2022/05/15 03:01:40;;;;;;;33.80;7.53;;;8.10;99.90;;;;;;4937480;29;20055;-84
2022/05/15 03:04:06;;;;;;;24.13;8.48;;;8.10;99.90;;;;;;4937803;29;20232;-81
2022/05/15 03:06:33;;;;;;;34.22;7.25;;;8.30;99.90;;;;;;4921129;29;20071;-82
2022/05/15 03:08:59;;;;;;;34.80;7.72;;;8.10;99.90;;;;;;4937110;29;20110;-81
2022/05/15 03:11:25;;;;;;;34.95;8.45;;;8.10;99.90;;;;;;4953656;29;20051;-81
2022/05/15 03:13:51;;;;;;;37.17;8.00;;;8.40;99.90;;;;;;4954446;29;20424;-81
2022/05/15 03:16:18;;;;;;;32.53;7.07;;;8.10;99.90;;;;;;4953323;29;20051;-81
2022/05/15 03:18:50;;;;;;;27.58;7.93;;;8.10;99.90;;;;;;4954360;29;20106;-81
2022/05/15 03:21:29;;;;;;;29.38;7.38;;;8.30;99.90;;;;;;4954237;29;20055;-81
2022/05/15 03:24:09;;;;;;;29.25;7.38;;;8.00;99.90;;;;;;4937389;29;20047;-81
2022/05/15 03:26:39;;;;;;;31.75;7.85;;;8.00;99.90;;;;;;4940900;29;20043;-81
2022/05/15 03:29:05;;;;;;;34.67;8.02;;;8.00;99.90;;;;;;4956719;29;20484;-81
2022/05/15 03:31:31;;;;;;;37.63;8.48;;;8.30;99.90;;;;;;4957656;29;20042;-81
2022/05/15 03:33:57;;;;;;;30.25;6.97;;;8.00;99.90;;;;;;4940749;29;20082;-81
2022/05/15 03:36:22;;;;;;;34.22;7.30;;;7.90;99.90;;;;;;4958012;29;20047;-81
2022/05/15 03:38:48;;;;;;;36.40;7.35;;;7.90;99.90;;;;;;4957960;29;20477;-81
2022/05/15 03:41:14;;;;;;;37.22;7.95;;;7.90;99.90;;;;;;4957005;29;20047;-81
2022/05/15 03:43:40;;;;;;;33.08;8.65;;;7.90;99.90;;;;;;4941311;29;20035;-81
2022/05/15 03:46:07;;;;;;;32.22;7.90;;;7.90;99.90;;;;;;4956759;29;20075;-81
2022/05/15 03:48:33;;;;;;;26.73;8.05;;;7.90;99.90;;;;;;4940338;29;20043;-81
2022/05/15 03:50:59;;;;;;;31.45;7.32;;;7.90;99.90;;;;;;4957455;29;20086;-81
2022/05/15 03:53:26;;;;;;;29.83;7.82;;;7.90;99.90;;;;;;4957722;29;20191;-81
2022/05/15 03:55:58;;;;;;;31.98;7.18;;;7.90;99.90;;;;;;4956596;29;20051;-81
2022/05/15 03:58:28;;;;;;;34.17;7.70;;;7.90;99.90;;;;;;4956565;29;20054;-81
2022/05/15 04:00:54;;;;;;;28.73;7.60;;;7.90;99.90;;;;;;4956335;29;20047;-81
2022/05/15 04:03:20;;;;;;;30.38;7.45;;;7.90;99.90;;;;;;4940014;29;20110;-81
2022/05/15 04:05:45;;;;;;;30.40;7.45;;;8.20;99.90;;;;;;4957378;29;20055;-82
2022/05/15 04:08:11;;;;;;;30.77;7.38;;;7.90;99.90;;;;;;4957393;29;20373;-81
2022/05/15 04:10:37;;;;;;;36.15;7.97;;;7.90;99.90;;;;;;4957374;29;20078;-81
2022/05/15 04:13:04;;;;;;;31.58;8.40;;;7.90;99.90;;;;;;4956490;29;20125;-81
2022/05/15 04:15:30;;;;;;;30.05;8.02;;;7.90;99.90;;;;;;4940213;29;20043;-81
2022/05/15 04:17:56;;;;;;;32.80;8.35;;;8.20;99.90;;;;;;4955989;29;20039;-82
2022/05/15 04:20:24;;;;;;;32.63;7.72;;;8.00;99.90;;;;;;4957134;29;20051;-81
2022/05/15 04:22:50;;;;;;;29.45;8.05;;;8.00;99.90;;;;;;4957190;29;20401;-81
2022/05/15 04:25:17;;;;;;;31.77;7.93;;;8.00;99.90;;;;;;4957086;29;20047;-81
2022/05/15 04:27:43;;;;;;;26.65;7.80;;;8.10;99.90;;;;;;4939981;29;20366;-81
2022/05/15 04:30:11;;;;;;;28.83;7.55;;;8.10;99.90;;;;;;4940314;29;20047;-81
2022/05/15 04:32:37;;;;;;;32.97;7.50;;;8.10;99.90;;;;;;4956847;29;20384;-81
2022/05/15 04:35:04;;;;;;;30.65;7.15;;;8.20;99.90;;;;;;4939777;28;20054;-81
2022/05/15 04:37:29;;;;;;;29.13;7.72;;;8.20;99.90;;;;;;4939535;29;20051;-81
2022/05/15 04:39:55;;;;;;;35.33;8.23;;;8.30;99.90;;;;;;4956022;29;20055;-81
2022/05/15 04:42:21;;;;;;;34.92;8.30;;;8.30;99.90;;;;;;4956023;29;20401;-81
2022/05/15 04:44:46;;;;;;;26.33;6.97;;;8.40;99.90;;;;;;4955683;29;20469;-82
2022/05/15 04:47:13;;;;;;;31.90;7.00;;;8.50;99.90;;;;;;4939671;29;20098;-81
2022/05/15 04:49:38;;;;;;;26.63;7.43;;;8.50;99.90;;;;;;4955228;29;20043;-81
2022/05/15 04:52:04;;;;;;;26.27;6.90;;;8.60;99.90;;;;;;4955591;29;20042;-80
2022/05/15 04:54:30;;;;;;;30.00;7.60;;;8.70;99.90;;;;;;4955217;29;20131;-81
2022/05/15 04:56:56;;;;;;;34.17;7.88;;;8.80;99.90;;;;;;4956429;29;20043;-81
2022/05/15 04:59:22;;;;;;;26.05;7.35;;;8.80;99.90;;;;;;4955583;29;20430;-81
2022/05/15 05:01:48;;;;;;;29.88;8.38;;;8.90;99.90;;;;;;4955227;29;20488;-81
2022/05/15 05:04:13;;;;;;;28.33;6.93;;;9.40;99.90;;;;;;4956196;29;20042;-81
2022/05/15 05:06:40;;;;;;;28.25;7.22;;;9.10;99.90;;;;;;4955069;29;20055;-83
2022/05/15 05:09:05;;;;;;;26.77;6.82;;;9.30;99.90;;;;;;4939436;29;20047;-81
2022/05/15 05:11:32;;;;;;;24.98;6.45;;;9.30;99.90;;;;;;4956301;29;20491;-81
2022/05/15 05:13:57;;;;;;;27.65;6.80;;;9.40;99.90;;;;;;4939214;29;20042;-82
2022/05/15 05:16:23;;;;;;;26.15;6.63;;;9.50;99.90;;;;;;4954828;29;20393;-81
2022/05/15 05:18:49;;;;;;;22.77;5.95;;;9.70;99.90;;;;;;4954978;29;20054;-81
2022/05/15 05:21:15;;;;;;;28.20;6.65;;;9.80;99.90;;;;;;4956074;29;20054;-81
2022/05/15 05:23:41;;;;;;;20.75;6.80;;;9.90;99.90;;;;;;4955262;29;20039;-82
2022/05/15 05:26:06;;;;;;;33.75;7.47;;;10.00;99.90;;;;;;4955955;29;20043;-81
2022/05/15 05:28:32;;;;;;;28.30;6.90;;;10.30;99.90;;;;;;4955897;29;20043;-82
2022/05/15 05:30:58;;;;;;;25.33;6.30;;;10.40;99.90;;;;;;4923202;29;20490;-81
2022/05/15 05:33:25;;;;;;;20.58;6.32;;;10.30;99.90;;;;;;4938914;29;20059;-81
2022/05/15 05:35:51;;;;;;;30.83;7.18;;;10.50;99.90;;;;;;4955454;29;20043;-81
2022/05/15 05:38:17;;;;;;;26.88;7.25;;;10.60;99.90;;;;;;4955775;29;20079;-81
2022/05/15 05:40:43;;;;;;;19.40;5.22;;;10.80;99.90;;;;;;4954859;29;20078;-81
2022/05/15 05:43:09;;;;;;;25.63;5.95;;;10.80;99.90;;;;;;4955692;29;20039;-82
2022/05/15 05:45:35;;;;;;;29.75;6.93;;;10.90;99.90;;;;;;4954753;29;20101;-82
2022/05/15 05:48:00;;;;;;;23.80;6.43;;;11.00;99.90;;;;;;4937707;29;20039;-81
2022/05/15 05:50:27;;;;;;;21.92;6.25;;;11.10;99.90;;;;;;4937378;28;20109;-82
2022/05/15 05:52:57;;;;;;;28.20;6.22;;;11.30;99.90;;;;;;4962708;28;20068;-81
2022/05/15 05:55:24;;;;;;;29.70;7.15;;;11.40;99.90;;;;;;4956405;28;20086;-81
2022/05/15 05:57:50;;;;;;;27.95;6.38;;;11.50;99.90;;;;;;4957296;28;20101;-81
2022/05/15 06:00:23;;;;;;;26.33;6.90;;;11.60;99.90;;;;;;4940656;28;20047;-84
2022/05/15 06:02:49;;;;;;;25.55;6.65;;;11.70;99.90;;;;;;4940673;28;20061;-81
2022/05/15 06:05:15;;;;;;;29.63;6.22;;;11.80;99.90;;;;;;4974015;28;20137;-83
2022/05/15 06:07:41;;;;;;;21.33;5.85;;;12.00;99.90;;;;;;4966106;28;20147;-81
2022/05/15 06:10:09;;;;;;;26.13;5.82;;;12.10;99.90;;;;;;4955151;29;20059;-81
2022/05/15 06:12:35;;;;;;;27.50;6.35;;;12.20;99.90;;;;;;4954896;29;20072;-81
2022/05/15 06:15:00;;;;;;;27.17;5.90;;;12.30;99.90;;;;;;4933058;28;20052;-81
2022/05/15 06:17:28;;;;;;;21.98;5.53;;;12.60;99.90;;;;;;4947948;28;20113;-81
2022/05/15 06:19:55;;;;;;;22.75;5.63;;;12.60;99.90;;;;;;4946722;28;20464;-81
2022/05/15 06:22:21;;;;;;;17.92;5.78;;;12.60;99.90;;;;;;4944960;29;20051;-81
2022/05/15 06:24:47;;;;;;;22.30;6.00;;;12.80;99.90;;;;;;4962709;28;20054;-81
2022/05/15 06:27:13;;;;;;;22.17;5.50;;;12.90;99.90;;;;;;4947761;28;20453;-81
2022/05/15 06:29:41;;;;;;;16.38;4.47;;;13.10;99.90;;;;;;4944203;29;20054;-82
2022/05/15 06:32:07;;;;;;;22.83;5.15;;;13.40;99.90;;;;;;4944902;29;20047;-82
2022/05/15 06:34:33;;;;;;;21.05;4.97;;;14.10;99.90;;;;;;4937333;29;20047;-82
2022/05/15 06:37:00;;;;;;;15.25;4.78;;;14.70;99.90;;;;;;4954836;29;20051;-81
2022/05/15 06:39:31;;;;;;;14.02;4.78;;;15.20;99.90;;;;;;4938067;29;20055;-82
2022/05/15 06:41:59;;;;;;;16.55;5.13;;;15.70;99.90;;;;;;4937723;29;20153;-83
2022/05/15 06:44:25;;;;;;;16.77;4.78;;;15.90;99.90;;;;;;4955072;29;20082;-82
2022/05/15 06:46:51;;;;;;;20.77;4.65;;;16.10;99.90;;;;;;4937633;29;20496;-82
2022/05/15 06:49:16;;;;;;;16.13;4.28;;;16.80;99.90;;;;;;4938585;29;20054;-82
2022/05/15 06:51:43;;;;;;;21.65;4.45;;;17.40;99.90;;;;;;4955182;29;20051;-82
2022/05/15 06:54:09;;;;;;;16.05;4.60;;;17.80;99.90;;;;;;4938062;29;20093;-82
2022/05/15 06:59:18;;;;;;;14.05;4.40;;;18.70;99.90;;;;;;4937435;29;20089;-82
2022/05/15 07:01:44;;;;;;;12.77;3.58;;;19.30;99.90;;;;;;4954601;29;20086;-82
2022/05/15 07:04:10;;;;;;;12.95;3.60;;;19.60;99.90;;;;;;4921934;29;20054;-83
2022/05/15 07:06:35;;;;;;;10.80;3.90;;;20.20;99.90;;;;;;4954525;28;20121;-82
2022/05/15 07:09:01;;;;;;;14.80;3.90;;;20.70;99.90;;;;;;4937590;29;20057;-82
2022/05/15 07:11:27;;;;;;;13.35;3.42;;;21.10;99.90;;;;;;4954486;29;20130;-83
2022/05/15 07:13:53;;;;;;;15.82;3.80;;;21.40;98.20;;;;;;4921178;29;20063;-84
2022/05/15 07:16:18;;;;;;;13.05;3.90;;;21.80;94.30;;;;;;4937631;29;20055;-84
2022/05/15 07:18:44;;;;;;;13.80;3.58;;;22.00;90.30;;;;;;4936829;29;20066;-82
2022/05/15 07:21:10;;;;;;;12.70;3.33;;;22.30;88.60;;;;;;4937531;29;20039;-83
2022/05/15 07:23:36;;;;;;;14.63;3.78;;;22.70;83.90;;;;;;4954320;29;20040;-83
2022/05/15 07:26:02;;;;;;;14.60;3.92;;;23.00;77.10;;;;;;4937024;29;20156;-82
2022/05/15 07:28:28;;;;;;;14.27;4.20;;;23.30;72.20;;;;;;4937049;29;20489;-84
2022/05/15 07:30:53;;;;;;;13.70;3.95;;;23.60;69.80;;;;;;4937353;29;20046;-82
2022/05/15 07:33:21;;;;;;;13.07;3.63;;;23.80;68.00;;;;;;4938362;29;20055;-83
2022/05/15 07:35:48;;;;;;;12.15;3.97;;;23.90;66.80;;;;;;4955712;29;20058;-84
2022/05/15 07:38:14;;;;;;;11.75;3.63;;;24.00;64.90;;;;;;4954290;29;20040;-85
2022/05/15 07:40:39;;;;;;;13.30;4.03;;;24.20;64.20;;;;;;4921412;29;20098;-83
2022/05/15 07:43:07;;;;;;;11.68;3.55;;;24.40;62.50;;;;;;4954027;29;20133;-83
2022/05/15 07:45:33;;;;;;;12.20;3.40;;;24.70;60.30;;;;;;4954034;29;20051;-83
2022/05/15 07:47:59;;;;;;;10.65;3.40;;;24.90;58.90;;;;;;4937016;29;20094;-82
2022/05/15 07:50:24;;;;;;;12.52;3.70;;;25.00;57.70;;;;;;4953781;29;20050;-82
2022/05/15 07:52:50;;;;;;;14.18;4.05;;;25.10;56.50;;;;;;4937104;29;20047;-83
2022/05/15 07:55:16;;;;;;;14.68;3.92;;;25.30;55.20;;;;;;4936921;29;20182;-82
2022/05/15 07:57:42;;;;;;;13.00;3.25;;;25.50;54.20;;;;;;4937074;29;20047;-82
2022/05/15 08:00:11;;;;;;;13.48;3.05;;;25.70;52.90;;;;;;4936981;29;20066;-84
2022/05/15 08:02:37;;;;;;;15.00;3.75;;;26.10;53.00;;;;;;4936945;29;20051;-83
2022/05/15 08:08:01;;;;;;;10.00;3.63;;;26.60;50.60;;;;;;4936809;29;20051;-84
2022/05/15 08:10:38;;;;;;;15.63;4.50;;;26.80;51.10;;;;;;4954107;28;20047;-82
2022/05/15 08:13:05;;;;;;;17.73;4.22;;;27.10;49.30;;;;;;4940061;29;20511;-82
2022/05/15 08:15:32;;;;;;;15.07;3.90;;;27.10;49.10;;;;;;4940421;29;20051;-82
2022/05/15 08:23:33;;;;;;;14.20;3.53;;;27.40;47.90;;;;;;4940063;29;20531;-82
2022/05/15 08:23:40;;;;;;;13.70;3.60;;;27.80;47.20;;;;;;4940112;29;20059;-83
2022/05/15 08:26:06;;;;;;;11.40;3.40;;;27.80;46.60;;;;;;4957257;29;20047;-83
2022/05/15 08:28:33;;;;;;;18.13;4.25;;;27.70;46.70;;;;;;4939867;29;20059;-81
2022/05/15 08:31:00;;;;;;;12.18;3.67;;;27.60;46.70;;;;;;4957157;29;20058;-83
2022/05/15 08:33:26;;;;;;;14.93;3.90;;;27.70;46.30;;;;;;4940128;29;20051;-82
2022/05/15 08:35:52;;;;;;;16.00;4.00;;;27.90;46.40;;;;;;4956990;29;20047;-83
2022/05/15 08:38:18;;;;;;;12.98;3.92;;;28.20;46.00;;;;;;4939806;29;20074;-84
2022/05/15 08:41:05;;;;;;;15.45;4.03;;;28.30;45.80;;;;;;4956648;29;20047;-84
2022/05/15 08:43:42;;;;;;;12.13;3.85;;;28.40;45.40;;;;;;4923685;29;20552;-84
2022/05/15 08:46:31;;;;;;;14.93;4.13;;;28.50;44.30;;;;;;4939896;29;20386;-85
2022/05/15 08:49:07;;;;;;;14.50;3.70;;;28.50;44.50;;;;;;4939330;29;20058;-83
2022/05/15 08:51:33;;;;;;;15.15;3.97;;;28.60;45.30;;;;;;4923931;29;20043;-83
2022/05/15 08:54:02;;;;;;;13.48;3.65;;;28.80;45.40;;;;;;4939722;29;20051;-82
2022/05/15 08:56:33;;;;;;;16.50;4.07;;;29.20;44.20;;;;;;4939610;29;20055;-83
2022/05/15 08:59:06;;;;;;;14.68;4.55;;;29.30;43.30;;;;;;4956608;29;20050;-83
2022/05/15 09:01:33;;;;;;;16.98;4.30;;;29.40;43.60;;;;;;4955427;29;20079;-82
2022/05/15 09:03:59;;;;;;;17.50;3.97;;;29.50;43.10;;;;;;4939842;29;20471;-84
2022/05/15 09:06:42;;;;;;;15.45;4.20;;;29.70;43.00;;;;;;4956937;29;20175;-84
2022/05/15 09:09:18;;;;;;;17.42;4.45;;;29.90;43.30;;;;;;4958409;29;20087;-83
2022/05/15 09:12:01;;;;;;;13.95;4.55;;;30.10;41.80;;;;;;4945160;29;20039;-86
2022/05/15 09:15:04;;;;;;;13.63;4.20;;;30.30;42.10;;;;;;4942603;29;20074;-82
2022/05/15 09:18:10;;;;;;;14.05;4.13;;;30.50;41.60;;;;;;4940940;29;20475;-82
2022/05/15 09:21:10;;;;;;;18.10;4.47;;;30.80;41.00;;;;;;4940470;29;20489;-83
2022/05/15 09:23:41;;;;;;;13.57;4.28;;;31.00;40.30;;;;;;4883903;29;20155;-83
2022/05/15 09:26:16;;;;;;;13.98;3.90;;;31.10;40.20;;;;;;4902665;29;20061;-84
2022/05/15 09:28:53;;;;;;;12.52;3.97;;;31.00;40.70;;;;;;4900897;29;20100;-85
2022/05/15 09:31:25;;;;;;;19.02;4.50;;;31.10;40.50;;;;;;4900006;29;20134;-84
2022/05/15 09:33:59;;;;;;;19.70;4.45;;;31.30;39.60;;;;;;4899128;29;20391;-85
2022/05/15 09:36:35;;;;;;;11.95;4.03;;;31.40;39.80;;;;;;4898751;29;20060;-84
2022/05/15 09:39:27;;;;;;;18.08;4.10;;;31.50;39.80;;;;;;4900179;29;20056;-84
2022/05/15 09:45:19;;;;;;;15.57;4.53;;;31.90;39.20;;;;;;4881072;29;20057;-85
2022/05/15 09:47:52;;;;;;;14.75;4.18;;;32.00;38.70;;;;;;4865377;29;20052;-84
2022/05/15 09:50:57;;;;;;;17.77;4.72;;;32.10;38.10;;;;;;4896205;29;20482;-84
2022/05/15 09:53:28;;;;;;;15.07;4.00;;;32.00;39.20;;;;;;4881277;29;20541;-84
2022/05/15 09:56:12;;;;;;;14.57;4.43;;;32.20;38.40;;;;;;4896410;29;20612;-85
2022/05/15 09:58:56;;;;;;;17.77;3.95;;;32.60;37.60;;;;;;4912836;29;20063;-84
2022/05/15 10:01:35;;;;;;;14.23;4.28;;;32.80;38.70;;;;;;4938232;29;20142;-84
2022/05/15 10:04:23;;;;;;;15.90;4.57;;;32.90;37.80;;;;;;4938459;29;20488;-84
2022/05/15 10:06:59;;;;;;;13.07;4.00;;;33.00;37.60;;;;;;4937409;29;20054;-83
2022/05/15 10:09:24;;;;;;;14.38;3.80;;;33.30;37.10;;;;;;4938216;29;20436;-83
2022/05/15 10:11:59;;;;;;;12.82;4.15;;;33.10;37.00;;;;;;4938491;29;20051;-84
2022/05/15 10:14:40;;;;;;;12.88;3.97;;;32.70;36.50;;;;;;4938240;29;20106;-84
2022/05/15 10:17:08;;;;;;;15.82;4.28;;;32.60;36.80;;;;;;4938100;29;20097;-82
2022/05/15 10:19:55;;;;;;;12.60;3.95;;;32.70;36.90;;;;;;4938475;29;20057;-83
2022/05/15 10:22:35;;;;;;;14.68;4.10;;;32.70;36.70;;;;;;4938180;29;20051;-83
2022/05/15 10:25:14;;;;;;;14.15;3.95;;;32.40;37.40;;;;;;4939140;29;20074;-84
2022/05/15 10:27:46;;;;;;;14.50;4.32;;;32.30;37.30;;;;;;4938695;29;20054;-85
2022/05/15 10:30:20;;;;;;;15.32;4.43;;;32.50;36.80;;;;;;4922475;29;20054;-84
2022/05/15 10:33:04;;;;;;;15.77;3.92;;;32.50;36.90;;;;;;4937531;29;20353;-84
2022/05/15 10:35:39;;;;;;;14.90;4.10;;;32.60;36.80;;;;;;4938163;29;20050;-84
2022/05/15 10:38:37;;;;;;;15.70;4.18;;;32.60;37.30;;;;;;4937583;29;20150;-86
2022/05/15 10:41:19;;;;;;;16.45;4.05;;;33.00;36.50;;;;;;4937973;29;20083;-84
2022/05/15 10:44:02;;;;;;;18.88;4.45;;;33.40;35.90;;;;;;4937938;29;20253;-85
2022/05/15 10:46:49;;;;;;;17.42;4.40;;;33.50;35.90;;;;;;4937898;29;20047;-85
2022/05/15 10:49:49;;;;;;;12.43;3.70;;;33.70;36.00;;;;;;4938120;29;20078;-84
2022/05/15 10:52:38;;;;;;;14.43;4.18;;;34.10;35.70;;;;;;4922151;29;20412;-86
2022/05/15 10:58:31;;;;;;;12.05;3.55;;;34.10;34.40;;;;;;4937632;29;20070;-84
2022/05/15 11:01:12;;;;;;;14.57;3.97;;;33.70;35.10;;;;;;4937514;29;20047;-85
2022/05/15 11:04:07;;;;;;;15.65;3.70;;;33.70;35.70;;;;;;4937704;29;20405;-84
2022/05/15 11:06:51;;;;;;;12.38;4.00;;;33.70;34.50;;;;;;4935540;29;20051;-84
2022/05/15 11:09:54;;;;;;;12.10;3.85;;;33.80;34.70;;;;;;4937074;29;20416;-86
2022/05/15 11:12:47;;;;;;;12.73;3.83;;;33.60;34.80;;;;;;4894578;29;20471;-85
2022/05/15 11:15:18;;;;;;;15.25;3.95;;;33.60;35.10;;;;;;4880490;29;20502;-85
2022/05/15 11:17:52;;;;;;;11.32;3.55;;;33.80;34.30;;;;;;4895460;29;20063;-85
2022/05/15 11:20:28;;;;;;;18.50;4.40;;;33.90;34.00;;;;;;4895105;29;20064;-85
2022/05/15 11:23:25;;;;;;;14.00;3.75;;;33.80;34.50;;;;;;4895513;29;20056;-86
2022/05/15 11:26:04;;;;;;;17.70;4.13;;;33.80;33.70;;;;;;4879238;29;20055;-84
2022/05/15 11:28:37;;;;;;;16.65;4.00;;;33.70;34.60;;;;;;4894654;29;20124;-86
2022/05/15 11:31:09;;;;;;;12.45;3.85;;;33.40;34.80;;;;;;4891473;29;20060;-85
2022/05/15 11:33:44;;;;;;;16.65;4.15;;;32.90;35.20;;;;;;4913580;29;20094;-85
2022/05/15 11:36:14;;;;;;;12.93;3.35;;;32.70;34.70;;;;;;4914081;29;20558;-84
2022/05/15 11:38:58;;;;;;;13.38;4.05;;;32.60;35.00;;;;;;4914655;29;20474;-85
2022/05/15 11:41:35;;;;;;;15.70;4.28;;;32.90;34.50;;;;;;4914553;29;20189;-82
2022/05/15 11:44:21;;;;;;;14.68;3.60;;;33.60;34.60;;;;;;4914451;29;20471;-83
2022/05/15 11:46:47;;;;;;;13.10;3.63;;;33.70;34.10;;;;;;4900933;29;20052;-85
2022/05/15 11:49:30;;;;;;;11.32;3.95;;;33.80;33.90;;;;;;4914302;29;20082;-83
2022/05/15 11:52:08;;;;;;;14.02;3.92;;;34.10;33.60;;;;;;4940928;29;20149;-84
2022/05/15 11:54:37;;;;;;;13.25;3.78;;;34.00;33.50;;;;;;4940413;29;20501;-84
2022/05/15 11:57:09;;;;;;;14.52;3.80;;;34.00;33.70;;;;;;4941172;29;20106;-85
2022/05/15 11:59:52;;;;;;;18.80;4.18;;;34.00;33.40;;;;;;4958064;29;20130;-85
2022/05/15 12:02:21;;;;;;;13.15;3.88;;;34.20;32.60;;;;;;4956979;29;20141;-86
2022/05/15 12:04:55;;;;;;;13.13;3.47;;;34.30;33.70;;;;;;4940717;29;20047;-84
2022/05/15 12:07:33;;;;;;;14.43;3.63;;;34.50;33.60;;;;;;4940249;29;20500;-84
2022/05/15 12:09:59;;;;;;;14.82;3.42;;;34.70;32.70;;;;;;4940269;29;20047;-85
2022/05/15 12:12:27;;;;;;;11.75;3.40;;;34.70;32.90;;;;;;4940444;29;20051;-85
2022/05/15 12:15:03;;;;;;;14.98;4.10;;;34.70;32.60;;;;;;4924439;29;20054;-84
2022/05/15 12:17:30;;;;;;;13.77;3.85;;;34.80;32.10;;;;;;4940151;29;20054;-85
2022/05/15 12:20:06;;;;;;;11.43;3.63;;;34.70;32.50;;;;;;4924247;29;20066;-86
2022/05/15 12:22:57;;;;;;;18.15;4.32;;;34.90;31.70;;;;;;4939743;29;20501;-83
2022/05/15 12:25:31;;;;;;;14.35;3.47;;;35.00;32.40;;;;;;4957054;29;20050;-83
2022/05/15 12:28:50;;;;;;;15.25;3.88;;;35.30;32.20;;;;;;4957145;29;20058;-82
2022/05/15 12:30:47;;;;;;;16.75;3.28;;;35.40;31.40;;;;;;4941826;29;20055;-84
2022/05/15 12:33:13;;;;;;;15.98;4.07;;;35.70;31.00;;;;;;4939996;29;20055;-83
2022/05/15 12:35:43;;;;;;;12.68;3.90;;;35.70;31.30;;;;;;4956823;29;20050;-82
2022/05/15 12:38:22;;;;;;;14.82;3.75;;;35.70;31.00;;;;;;4940624;29;20047;-84
2022/05/15 12:40:59;;;;;;;12.77;3.83;;;35.60;30.90;;;;;;4940109;29;20051;-89
2022/05/15 12:43:38;;;;;;;12.88;3.67;;;35.60;31.30;;;;;;4939838;29;20058;-85
2022/05/15 12:46:05;;;;;;;12.35;3.28;;;35.60;30.80;;;;;;4956845;29;20113;-84
2022/05/15 12:48:36;;;;;;;10.63;3.38;;;35.60;31.60;;;;;;4923481;29;20059;-85
2022/05/15 12:51:09;;;;;;;9.95;3.50;;;35.60;31.10;;;;;;4924090;29;20047;-85
2022/05/15 12:53:42;;;;;;;14.40;3.53;;;35.60;30.70;;;;;;4924161;29;20051;-87
2022/05/15 12:56:19;;;;;;;19.95;3.95;;;35.70;30.50;;;;;;4924388;28;20061;-84
2022/05/15 12:58:55;;;;;;;9.77;3.00;;;35.80;31.30;;;;;;4941206;29;20050;-85
2022/05/15 13:01:23;;;;;;;11.50;3.58;;;35.80;30.70;;;;;;4941194;29;20445;-83
2022/05/15 13:03:53;;;;;;;10.27;3.40;;;35.70;31.00;;;;;;4942077;29;20093;-83
2022/05/15 13:06:26;;;;;;;14.18;3.28;;;35.60;30.70;;;;;;4927201;29;20059;-84
2022/05/15 13:08:56;;;;;;;11.77;3.50;;;35.70;30.50;;;;;;4959854;29;20075;-85
2022/05/15 13:11:28;;;;;;;13.02;3.97;;;35.80;31.10;;;;;;4941884;29;20078;-83
2022/05/15 13:13:57;;;;;;;16.13;3.85;;;35.90;30.50;;;;;;4958183;29;20493;-84
2022/05/15 13:16:27;;;;;;;11.25;3.45;;;35.80;29.80;;;;;;4929808;29;20050;-84